Time;durP1;ratioP1;P1;durP2;ratioP2;P2;SDS_P1;SDS_P2;PMS_P1;PMS_P2;Temp;Humidity;BMP_temperature;BMP_pressure;BME280_temperature;BME280_humidity;BME280_pressure;Samples;Min_cycle;Max_cycle;Signal;HPM_P1;HPM_P2
2022/12/07 00:01:26;;;;;;;8.53;1.10;;;3.20;99.90;;;;;;5098064;28;20047;-79
2022/12/07 00:03:56;;;;;;;11.75;1.10;;;3.10;99.90;;;;;;5112407;28;20535;-82
2022/12/07 00:06:22;;;;;;;10.20;1.13;;;3.00;99.90;;;;;;5115985;28;20097;-79
2022/12/07 00:08:48;;;;;;;10.65;1.27;;;3.00;99.90;;;;;;5097613;28;20107;-80
2022/12/07 00:11:17;;;;;;;7.53;0.88;;;3.00;99.90;;;;;;5133498;28;20047;-82
2022/12/07 00:13:43;;;;;;;14.85;1.13;;;2.90;99.90;;;;;;5133516;28;20082;-79
2022/12/07 00:16:14;;;;;;;7.55;0.93;;;2.90;99.90;;;;;;5133419;28;20122;-82
2022/12/07 00:18:40;;;;;;;6.32;1.00;;;2.80;99.90;;;;;;5133725;28;20054;-79
2022/12/07 00:21:10;;;;;;;8.10;1.10;;;2.90;99.90;;;;;;5133402;28;20043;-78
2022/12/07 00:23:37;;;;;;;10.13;1.55;;;2.80;99.90;;;;;;5133404;28;20050;-80
2022/12/07 00:26:04;;;;;;;10.63;0.82;;;2.70;99.90;;;;;;5133452;28;20567;-80
2022/12/07 00:28:30;;;;;;;17.35;1.17;;;2.70;99.90;;;;;;5117219;28;20050;-80
2022/12/07 00:31:10;;;;;;;8.05;1.00;;;2.60;99.90;;;;;;5137588;28;20047;-80
2022/12/07 00:33:36;;;;;;;5.32;0.80;;;2.60;99.90;;;;;;5134127;28;20074;-79
2022/12/07 00:36:05;;;;;;;15.48;1.25;;;2.60;99.90;;;;;;5133417;28;20035;-80
2022/12/07 00:38:32;;;;;;;9.98;1.17;;;2.50;99.90;;;;;;5133384;28;20048;-80
2022/12/07 00:41:00;;;;;;;6.93;0.82;;;2.50;99.90;;;;;;5133206;28;20047;-81
2022/12/07 00:43:26;;;;;;;11.77;0.90;;;2.60;99.90;;;;;;5098027;28;20047;-80
2022/12/07 00:45:53;;;;;;;12.10;0.80;;;2.60;99.90;;;;;;5133164;28;20139;-82
2022/12/07 00:48:19;;;;;;;10.37;1.27;;;2.60;99.90;;;;;;5114678;28;20475;-80
2022/12/07 00:50:44;;;;;;;19.88;2.42;;;2.70;99.90;;;;;;5133140;28;20078;-81
2022/12/07 00:53:10;;;;;;;11.95;1.35;;;2.80;99.90;;;;;;5133115;28;20126;-80
2022/12/07 00:55:36;;;;;;;16.73;1.08;;;2.80;99.90;;;;;;5133235;28;20054;-79
2022/12/07 00:58:03;;;;;;;13.45;1.52;;;2.90;99.90;;;;;;5133097;28;20051;-80
2022/12/07 01:00:29;;;;;;;10.88;1.40;;;3.00;99.90;;;;;;5133018;28;20051;-79
2022/12/07 01:02:54;;;;;;;10.85;1.00;;;3.00;99.90;;;;;;5114463;28;20359;-79
2022/12/07 01:05:20;;;;;;;8.80;1.73;;;3.00;99.90;;;;;;5132829;27;20055;-81
2022/12/07 01:07:46;;;;;;;13.50;1.55;;;3.10;99.90;;;;;;5133338;28;20086;-81
2022/12/07 01:10:13;;;;;;;8.13;0.90;;;3.00;99.90;;;;;;5114733;28;20086;-79
2022/12/07 01:12:39;;;;;;;10.60;0.98;;;3.00;99.90;;;;;;5132371;28;20487;-81
2022/12/07 01:15:06;;;;;;;13.35;1.10;;;3.10;99.90;;;;;;5114418;28;20065;-81
2022/12/07 01:17:32;;;;;;;7.22;1.00;;;3.10;99.90;;;;;;5133526;28;20043;-79
2022/12/07 01:19:58;;;;;;;11.57;2.55;;;3.20;99.90;;;;;;5133336;27;20441;-83
2022/12/07 01:22:23;;;;;;;9.40;0.90;;;3.20;99.90;;;;;;5118333;27;20050;-80
2022/12/07 01:24:49;;;;;;;10.43;1.23;;;3.20;99.90;;;;;;5136357;27;20091;-79
2022/12/07 01:27:15;;;;;;;10.73;1.80;;;3.20;99.90;;;;;;5136188;27;20059;-79
2022/12/07 01:29:41;;;;;;;14.27;1.13;;;3.30;99.90;;;;;;5136661;27;20054;-78
2022/12/07 01:32:06;;;;;;;12.35;1.08;;;3.40;99.90;;;;;;5117482;27;20511;-79
2022/12/07 01:34:32;;;;;;;8.52;0.80;;;3.40;99.90;;;;;;5136249;27;20053;-80
2022/12/07 01:36:58;;;;;;;12.30;1.08;;;3.30;99.90;;;;;;5135973;27;20043;-80
2022/12/07 01:39:24;;;;;;;13.23;1.00;;;3.40;99.90;;;;;;5136054;27;20106;-79
2022/12/07 01:41:50;;;;;;;8.85;1.08;;;3.40;99.90;;;;;;5117502;27;20114;-80
2022/12/07 01:44:25;;;;;;;10.27;0.90;;;3.30;99.90;;;;;;5117849;27;20078;-79
2022/12/07 01:46:57;;;;;;;9.30;1.05;;;3.30;99.90;;;;;;5136519;27;20329;-78
2022/12/07 01:49:33;;;;;;;9.07;0.93;;;3.20;99.90;;;;;;5136349;27;20134;-80
2022/12/07 01:52:13;;;;;;;12.10;0.90;;;3.20;99.90;;;;;;5118166;27;20043;-81
2022/12/07 01:54:39;;;;;;;14.35;1.38;;;3.20;99.90;;;;;;5136609;27;20079;-79
2022/12/07 01:57:07;;;;;;;13.10;0.73;;;3.10;99.90;;;;;;5118268;27;20481;-81
2022/12/07 01:59:33;;;;;;;13.57;1.20;;;3.10;99.90;;;;;;5135890;27;20398;-79
2022/12/07 02:02:01;;;;;;;8.02;1.20;;;3.00;99.90;;;;;;5136082;27;20053;-79
2022/12/07 02:04:27;;;;;;;10.32;0.80;;;2.90;99.90;;;;;;5117446;27;20043;-80
2022/12/07 02:06:54;;;;;;;8.02;0.90;;;2.90;99.90;;;;;;5135140;27;20145;-81
2022/12/07 02:09:20;;;;;;;;;;;2.80;99.90;;;;;;5117946;27;20424;-80
2022/12/07 02:11:46;;;;;;;9.60;0.90;;;2.70;99.90;;;;;;5135988;27;19926;-80
2022/12/07 02:14:12;;;;;;;8.98;0.50;;;2.70;99.90;;;;;;5117054;27;20103;-79
2022/12/07 02:16:47;;;;;;;7.22;1.17;;;2.70;99.90;;;;;;5135555;27;20148;-79
2022/12/07 02:19:21;;;;;;;12.20;1.15;;;2.70;99.90;;;;;;5135703;27;20047;-79
2022/12/07 02:22:21;;;;;;;7.38;0.70;;;2.70;99.90;;;;;;5121607;27;20051;-79
2022/12/07 02:25:02;;;;;;;13.95;0.90;;;2.70;99.90;;;;;;5115307;27;20047;-80
2022/12/07 02:27:47;;;;;;;5.60;0.68;;;2.70;99.90;;;;;;5147565;27;20063;-81
2022/12/07 02:30:22;;;;;;;13.02;0.80;;;2.60;99.90;;;;;;5142586;27;20533;-79
2022/12/07 02:33:03;;;;;;;12.55;0.80;;;2.50;99.90;;;;;;5122486;27;20448;-80
2022/12/07 02:35:33;;;;;;;5.18;0.57;;;2.50;99.90;;;;;;5140920;27;20093;-80
2022/12/07 02:38:14;;;;;;;8.02;0.68;;;2.40;99.90;;;;;;5118212;27;20145;-80
2022/12/07 02:40:51;;;;;;;4.40;0.77;;;2.30;99.90;;;;;;5136403;27;20047;-79
2022/12/07 02:43:46;;;;;;;9.82;0.70;;;2.30;99.90;;;;;;5134851;27;20050;-79
2022/12/07 02:46:19;;;;;;;7.68;0.57;;;2.20;99.90;;;;;;5126140;27;20051;-80
2022/12/07 02:48:47;;;;;;;5.40;0.55;;;2.20;99.90;;;;;;5116197;27;20043;-79
2022/12/07 02:51:13;;;;;;;9.10;0.50;;;2.10;99.90;;;;;;5134779;27;20043;-80
2022/12/07 02:53:41;;;;;;;12.30;0.70;;;2.10;99.90;;;;;;5115881;27;20459;-79
2022/12/07 02:56:47;;;;;;;10.98;1.00;;;2.10;99.90;;;;;;5135092;27;20370;-79
2022/12/07 02:59:30;;;;;;;13.70;1.00;;;2.00;99.90;;;;;;5115589;27;20046;-80
2022/12/07 03:02:08;;;;;;;7.03;1.05;;;2.00;99.90;;;;;;5116817;27;20355;-80
2022/12/07 03:04:48;;;;;;;6.65;0.98;;;2.10;99.90;;;;;;5099179;27;20065;-80
2022/12/07 03:07:23;;;;;;;8.40;0.63;;;2.20;99.90;;;;;;5133619;27;20059;-80
2022/12/07 03:09:59;;;;;;;11.40;0.93;;;2.20;99.90;;;;;;5134941;27;20107;-81
2022/12/07 03:12:50;;;;;;;13.52;1.45;;;2.40;99.90;;;;;;5134277;27;20043;-79
2022/12/07 03:15:27;;;;;;;7.85;0.82;;;2.50;99.90;;;;;;5122447;27;20059;-79
2022/12/07 03:17:54;;;;;;;18.80;1.00;;;2.50;99.90;;;;;;5134793;27;20083;-78
2022/12/07 03:20:23;;;;;;;7.25;0.80;;;2.60;99.90;;;;;;5134074;27;20039;-80
2022/12/07 03:22:50;;;;;;;14.02;0.90;;;2.60;99.90;;;;;;5115346;27;20043;-80
2022/12/07 03:25:17;;;;;;;15.45;1.38;;;2.60;99.90;;;;;;5133696;27;20122;-81
2022/12/07 03:27:56;;;;;;;9.77;0.88;;;2.60;99.90;;;;;;5133844;27;20082;-80
2022/12/07 03:30:29;;;;;;;11.50;0.65;;;2.60;99.90;;;;;;5133575;27;20047;-80
2022/12/07 03:33:09;;;;;;;8.07;0.47;;;2.60;99.90;;;;;;5098696;27;20051;-80
2022/12/07 03:35:40;;;;;;;12.20;0.52;;;2.60;99.90;;;;;;5115271;27;20054;-79
2022/12/07 03:38:19;;;;;;;8.82;1.02;;;2.60;99.90;;;;;;5134238;27;20105;-79
2022/12/07 03:40:52;;;;;;;6.30;0.52;;;2.50;99.90;;;;;;5117673;27;20081;-79
2022/12/07 03:43:19;;;;;;;12.98;0.88;;;2.60;99.90;;;;;;5116574;27;20163;-79
2022/12/07 03:46:16;;;;;;;5.75;0.47;;;2.60;99.90;;;;;;5134272;27;20092;-78
2022/12/07 03:48:50;;;;;;;13.73;0.70;;;2.60;99.90;;;;;;5111959;27;20367;-78
2022/12/07 03:51:30;;;;;;;11.25;1.10;;;2.60;99.90;;;;;;5134159;27;20082;-79
2022/12/07 03:54:24;;;;;;;8.73;0.77;;;2.50;99.90;;;;;;5136943;27;20054;-79
2022/12/07 03:56:51;;;;;;;9.38;0.40;;;2.40;99.90;;;;;;5117602;27;20063;-79
2022/12/07 03:59:18;;;;;;;;;;;2.30;99.90;;;;;;5136738;27;20375;-80
2022/12/07 04:01:54;;;;;;;5.65;0.65;;;2.30;99.90;;;;;;5117951;27;20274;-80
2022/12/07 04:04:20;;;;;;;8.80;0.50;;;2.20;99.90;;;;;;5136121;27;20054;-80
2022/12/07 04:06:46;;;;;;;7.72;0.45;;;2.20;99.90;;;;;;5136275;27;20485;-80
2022/12/07 04:09:14;;;;;;;8.52;0.40;;;2.10;99.90;;;;;;5135509;28;20058;-78
2022/12/07 04:11:40;;;;;;;12.43;0.63;;;2.20;99.90;;;;;;5135197;28;20047;-79
2022/12/07 04:14:18;;;;;;;10.75;0.50;;;2.10;99.90;;;;;;5134341;28;20047;-82
2022/12/07 04:16:46;;;;;;;4.70;0.30;;;2.00;99.90;;;;;;5115604;28;20079;-81
2022/12/07 04:19:12;;;;;;;11.48;0.50;;;2.00;99.90;;;;;;5114847;28;20065;-79
2022/12/07 04:21:38;;;;;;;9.85;0.50;;;1.90;99.90;;;;;;5114780;28;20436;-81
2022/12/07 04:24:04;;;;;;;7.90;0.40;;;1.90;99.90;;;;;;5118169;28;20077;-79
2022/12/07 04:26:30;;;;;;;5.75;0.40;;;1.90;99.90;;;;;;5136994;28;20047;-82
2022/12/07 04:28:56;;;;;;;7.63;0.65;;;1.90;99.90;;;;;;5134817;28;20512;-78
2022/12/07 04:31:21;;;;;;;10.68;0.57;;;1.80;99.90;;;;;;5114598;28;20043;-78
2022/12/07 04:33:47;;;;;;;10.65;0.93;;;1.90;99.90;;;;;;5097744;28;20043;-78
2022/12/07 04:36:13;;;;;;;8.82;0.80;;;1.90;99.90;;;;;;5114268;28;20055;-79
2022/12/07 04:38:39;;;;;;;6.57;0.40;;;1.90;99.90;;;;;;5114609;28;20462;-79
2022/12/07 04:41:06;;;;;;;9.18;0.70;;;1.80;99.90;;;;;;5132842;28;20086;-79
2022/12/07 04:43:31;;;;;;;10.68;0.60;;;1.80;99.90;;;;;;5114885;28;20039;-78
2022/12/07 04:45:57;;;;;;;7.75;0.60;;;1.80;99.90;;;;;;5132808;28;20035;-79
2022/12/07 04:48:23;;;;;;;11.52;1.35;;;1.70;99.90;;;;;;5132870;28;20043;-79
2022/12/07 04:50:51;;;;;;;11.13;0.47;;;1.70;99.90;;;;;;5114783;28;20047;-78
2022/12/07 04:53:17;;;;;;;12.45;0.93;;;1.60;99.90;;;;;;5132691;28;20046;-79
2022/12/07 04:55:45;;;;;;;12.98;0.50;;;1.60;99.90;;;;;;5136311;27;20039;-80
2022/12/07 04:58:11;;;;;;;6.97;0.32;;;1.60;99.90;;;;;;5136829;27;20051;-83
2022/12/07 05:00:36;;;;;;;6.72;0.40;;;1.70;99.90;;;;;;5102001;27;20416;-81
2022/12/07 05:03:02;;;;;;;9.90;0.60;;;1.70;99.90;;;;;;5118392;27;20180;-79
2022/12/07 05:05:28;;;;;;;6.30;0.40;;;1.80;99.90;;;;;;5118058;27;20055;-80
2022/12/07 05:07:54;;;;;;;14.20;0.73;;;1.80;99.90;;;;;;5136612;27;20126;-79
2022/12/07 05:10:19;;;;;;;7.80;0.40;;;1.90;99.90;;;;;;5118936;27;20151;-80
2022/12/07 05:12:45;;;;;;;12.30;0.43;;;2.00;99.90;;;;;;5136297;27;20043;-81
2022/12/07 05:15:12;;;;;;;9.82;0.40;;;2.00;99.90;;;;;;5136384;27;20047;-80
2022/12/07 05:17:37;;;;;;;12.43;0.83;;;2.00;99.90;;;;;;5100907;27;20483;-81
2022/12/07 05:20:04;;;;;;;12.38;0.50;;;1.90;99.90;;;;;;5102135;27;20054;-80
2022/12/07 05:22:30;;;;;;;10.15;0.55;;;2.00;99.90;;;;;;5136009;27;20113;-80
2022/12/07 05:24:55;;;;;;;10.50;0.60;;;1.90;99.90;;;;;;5118000;27;20055;-81
2022/12/07 05:27:22;;;;;;;8.95;0.70;;;1.80;99.90;;;;;;5136440;27;20081;-80
2022/12/07 05:29:47;;;;;;;18.85;0.52;;;1.80;99.90;;;;;;5117962;27;20089;-80
2022/12/07 05:32:13;;;;;;;16.35;0.93;;;1.80;99.90;;;;;;5135941;27;20078;-83
2022/12/07 05:34:39;;;;;;;8.52;0.50;;;1.70;99.90;;;;;;5136040;27;20056;-81
2022/12/07 05:37:04;;;;;;;11.73;0.45;;;1.70;99.90;;;;;;5135820;27;20043;-81
2022/12/07 05:39:30;;;;;;;13.80;0.63;;;1.60;99.90;;;;;;5118022;27;20043;-80
2022/12/07 05:42:14;;;;;;;8.27;0.40;;;1.60;99.90;;;;;;5136469;27;20072;-81
2022/12/07 05:44:44;;;;;;;10.63;0.40;;;1.50;99.90;;;;;;5136746;27;20069;-80
2022/12/07 05:47:11;;;;;;;12.45;0.40;;;1.50;99.90;;;;;;5100723;27;20083;-81
2022/12/07 05:49:37;;;;;;;12.40;0.60;;;1.40;99.90;;;;;;5135791;27;20118;-81
2022/12/07 05:52:03;;;;;;;10.48;0.60;;;1.40;99.90;;;;;;5136167;27;20086;-80
2022/12/07 05:54:29;;;;;;;8.53;0.43;;;1.30;99.90;;;;;;5101022;27;20122;-80
2022/12/07 05:56:55;;;;;;;8.48;0.52;;;1.30;99.90;;;;;;5116899;27;20106;-80
2022/12/07 05:59:23;;;;;;;11.48;0.50;;;1.30;99.90;;;;;;5118299;27;20051;-81
2022/12/07 06:02:01;;;;;;;11.65;0.60;;;1.20;99.90;;;;;;5100694;27;20047;-80
2022/12/07 06:04:30;;;;;;;4.90;0.40;;;1.20;99.90;;;;;;5135967;27;20043;-80
2022/12/07 06:06:56;;;;;;;11.18;0.55;;;1.20;99.90;;;;;;5098914;27;20169;-81
2022/12/07 06:09:23;;;;;;;8.43;0.70;;;1.20;99.90;;;;;;5117034;27;20062;-82
2022/12/07 06:14:34;;;;;;;14.38;1.75;;;1.20;99.90;;;;;;5117095;27;20402;-81
2022/12/07 06:16:59;;;;;;;4.70;0.80;;;1.20;99.90;;;;;;5135036;27;20050;-82
2022/12/07 06:19:25;;;;;;;5.78;0.50;;;1.20;99.90;;;;;;5135099;27;20424;-80
2022/12/07 06:21:52;;;;;;;6.15;0.60;;;1.30;99.90;;;;;;5135097;27;20054;-80
2022/12/07 06:24:18;;;;;;;11.95;0.82;;;1.40;99.90;;;;;;5134968;27;20039;-82
2022/12/07 06:26:44;;;;;;;11.75;0.70;;;1.50;99.90;;;;;;5116593;27;20051;-80
2022/12/07 06:29:11;;;;;;;9.55;0.70;;;1.60;99.90;;;;;;5134921;27;20089;-81
2022/12/07 06:31:37;;;;;;;4.60;0.40;;;1.60;99.90;;;;;;5116258;27;20043;-81
2022/12/07 06:34:06;;;;;;;10.80;0.98;;;1.70;99.90;;;;;;5134702;27;20471;-80
2022/12/07 06:36:32;;;;;;;6.00;0.77;;;1.80;99.90;;;;;;5134887;27;20047;-80
2022/12/07 06:38:58;;;;;;;7.07;0.93;;;1.90;99.90;;;;;;5100375;27;20108;-80
2022/12/07 06:41:24;;;;;;;12.70;0.60;;;2.00;99.90;;;;;;5135423;27;20340;-81
2022/12/07 06:43:50;;;;;;;8.50;0.65;;;2.10;99.90;;;;;;5117850;27;20112;-80
2022/12/07 06:46:17;;;;;;;12.35;1.20;;;2.30;99.90;;;;;;5083205;27;20134;-80
2022/12/07 06:48:43;;;;;;;11.15;0.40;;;2.40;99.90;;;;;;5135385;27;20479;-79
2022/12/07 06:51:10;;;;;;;15.10;0.82;;;2.50;99.90;;;;;;5137129;27;20072;-82
2022/12/07 06:53:36;;;;;;;6.00;0.40;;;2.60;99.90;;;;;;5134798;27;20050;-82
2022/12/07 06:56:03;;;;;;;17.37;1.30;;;2.70;99.90;;;;;;5117421;27;20493;-80
2022/12/07 06:58:28;;;;;;;5.82;0.50;;;2.70;99.90;;;;;;5134949;27;20284;-80
2022/12/07 07:00:54;;;;;;;11.80;0.68;;;2.80;99.90;;;;;;5134248;27;20455;-80
2022/12/07 07:03:20;;;;;;;9.95;0.88;;;2.60;99.90;;;;;;5135028;27;20064;-80
2022/12/07 07:05:46;;;;;;;6.72;0.50;;;2.60;99.90;;;;;;5115344;27;20449;-80
2022/12/07 07:08:12;;;;;;;8.77;0.65;;;2.60;99.90;;;;;;5115635;27;20126;-80
2022/12/07 07:10:39;;;;;;;6.10;0.60;;;2.50;99.90;;;;;;5134209;27;20074;-81
2022/12/07 07:13:05;;;;;;;10.95;0.68;;;2.60;99.90;;;;;;5134262;27;20051;-80
2022/12/07 07:15:32;;;;;;;12.68;1.35;;;2.60;99.90;;;;;;5115786;27;20147;-80
2022/12/07 07:17:58;;;;;;;9.90;0.63;;;2.60;99.90;;;;;;5133248;27;20471;-80
2022/12/07 07:20:24;;;;;;;11.07;0.75;;;2.60;99.90;;;;;;5134108;27;20061;-80
2022/12/07 07:22:50;;;;;;;11.63;0.88;;;2.60;99.90;;;;;;5116004;27;20055;-80
2022/12/07 07:25:16;;;;;;;8.52;0.85;;;2.70;99.90;;;;;;5134589;27;20390;-79
2022/12/07 07:27:42;;;;;;;11.43;0.77;;;2.70;99.90;;;;;;5136680;27;20043;-80
2022/12/07 07:30:08;;;;;;;15.27;0.85;;;2.70;99.90;;;;;;5120988;27;20081;-81
2022/12/07 07:32:34;;;;;;;11.63;0.70;;;2.70;99.90;;;;;;5139814;27;20356;-79
2022/12/07 07:35:00;;;;;;;7.53;0.52;;;2.80;99.90;;;;;;5139587;27;20045;-80
2022/12/07 07:37:26;;;;;;;15.10;0.88;;;2.80;99.90;;;;;;5136001;27;20051;-79
2022/12/07 07:39:52;;;;;;;12.77;1.02;;;2.90;99.90;;;;;;5116373;27;20061;-79
2022/12/07 07:42:18;;;;;;;10.25;0.93;;;2.90;99.90;;;;;;5115486;27;20043;-79
2022/12/07 07:44:43;;;;;;;9.00;0.70;;;2.80;99.90;;;;;;5115667;27;20405;-81
2022/12/07 07:47:09;;;;;;;9.15;0.80;;;2.80;99.90;;;;;;5133554;27;20122;-80
2022/12/07 07:49:35;;;;;;;10.75;0.80;;;2.70;99.90;;;;;;5134118;27;20049;-80
2022/12/07 07:52:01;;;;;;;10.27;0.70;;;2.80;99.90;;;;;;5115317;27;20138;-80
2022/12/07 07:54:26;;;;;;;8.80;1.38;;;2.70;99.90;;;;;;5115223;27;20146;-79
2022/12/07 07:56:52;;;;;;;7.10;0.77;;;2.70;99.90;;;;;;5133684;27;20051;-78
2022/12/07 07:59:18;;;;;;;7.25;0.60;;;2.70;99.90;;;;;;5133940;27;20356;-78
2022/12/07 08:01:44;;;;;;;16.90;0.85;;;2.80;99.90;;;;;;5133843;27;20058;-78
2022/12/07 08:04:10;;;;;;;10.90;0.80;;;2.90;99.90;;;;;;5133325;27;20479;-78
2022/12/07 08:06:36;;;;;;;12.60;1.13;;;2.80;99.90;;;;;;5114847;27;20057;-79
2022/12/07 08:09:02;;;;;;;10.98;0.90;;;3.00;99.90;;;;;;5134378;28;20055;-81
2022/12/07 08:11:28;;;;;;;7.88;0.77;;;3.00;99.90;;;;;;5135378;28;20451;-79
2022/12/07 08:13:53;;;;;;;9.35;0.95;;;3.10;99.90;;;;;;5134939;28;20053;-80
2022/12/07 08:16:19;;;;;;;4.32;0.73;;;3.20;99.90;;;;;;5115790;28;20043;-80
2022/12/07 08:18:45;;;;;;;8.45;1.15;;;3.20;99.90;;;;;;5133445;28;20092;-79
2022/12/07 08:21:13;;;;;;;10.88;0.50;;;3.20;99.90;;;;;;5115626;28;20089;-80
2022/12/07 08:23:39;;;;;;;10.07;1.00;;;3.20;99.90;;;;;;5133864;28;20074;-80
2022/12/07 08:26:08;;;;;;;6.47;0.80;;;3.20;99.90;;;;;;5116309;28;20039;-79
2022/12/07 08:28:34;;;;;;;9.63;1.15;;;3.20;99.90;;;;;;5134909;27;20453;-80
2022/12/07 08:31:01;;;;;;;7.47;0.65;;;3.10;99.90;;;;;;5138389;27;20047;-79
2022/12/07 08:33:27;;;;;;;9.43;1.10;;;3.00;99.90;;;;;;5137673;27;20062;-79
2022/12/07 08:35:53;;;;;;;11.98;0.70;;;2.90;99.90;;;;;;5137228;27;20070;-79
2022/12/07 08:38:19;;;;;;;8.55;1.20;;;2.80;99.90;;;;;;5137814;27;20047;-80
2022/12/07 08:40:44;;;;;;;6.57;0.80;;;2.70;99.90;;;;;;5136796;27;20042;-80
2022/12/07 08:43:10;;;;;;;12.50;0.73;;;2.70;99.90;;;;;;5137029;27;20126;-80
2022/12/07 08:45:36;;;;;;;8.10;0.77;;;2.60;99.90;;;;;;5137178;27;20039;-82
2022/12/07 08:48:10;;;;;;;7.38;0.60;;;2.60;99.90;;;;;;5118916;27;20043;-80
2022/12/07 08:50:37;;;;;;;7.93;0.65;;;2.50;99.90;;;;;;5119053;27;20047;-80
2022/12/07 08:53:04;;;;;;;11.23;1.08;;;2.60;99.90;;;;;;5137090;27;20402;-81
2022/12/07 08:55:30;;;;;;;5.72;0.63;;;2.70;99.90;;;;;;5137494;27;20440;-78
2022/12/07 08:57:58;;;;;;;9.43;0.93;;;2.80;99.90;;;;;;5137060;27;20130;-80
2022/12/07 09:00:24;;;;;;;8.18;0.60;;;2.90;99.90;;;;;;5137503;27;20043;-80
2022/12/07 09:02:50;;;;;;;6.82;0.80;;;3.10;99.90;;;;;;5136676;27;20536;-80
2022/12/07 09:05:16;;;;;;;8.77;0.88;;;3.20;99.90;;;;;;5101021;27;20051;-79
2022/12/07 09:07:45;;;;;;;12.30;0.70;;;3.20;99.90;;;;;;5137272;27;20051;-80
2022/12/07 09:10:11;;;;;;;14.25;1.23;;;3.30;99.90;;;;;;5136408;27;20506;-81
2022/12/07 09:12:37;;;;;;;6.03;0.70;;;3.40;99.90;;;;;;5136463;27;20086;-81
2022/12/07 09:15:03;;;;;;;6.55;0.63;;;3.40;99.90;;;;;;5137197;27;20042;-80
2022/12/07 09:17:32;;;;;;;7.30;0.70;;;3.50;99.90;;;;;;5136484;27;20060;-80
2022/12/07 09:20:00;;;;;;;12.73;1.20;;;3.60;99.90;;;;;;5118797;27;20123;-80
2022/12/07 09:22:30;;;;;;;7.45;1.05;;;3.50;99.90;;;;;;5136390;27;20066;-79
2022/12/07 09:24:58;;;;;;;9.95;0.70;;;3.60;99.90;;;;;;5137149;27;20051;-80
2022/12/07 09:27:24;;;;;;;11.35;2.35;;;3.50;99.90;;;;;;5135759;27;20570;-80
2022/12/07 09:29:50;;;;;;;8.70;0.95;;;3.50;99.90;;;;;;5136156;27;20126;-80
2022/12/07 09:32:16;;;;;;;14.57;1.10;;;3.40;99.90;;;;;;5136685;27;20130;-80
2022/12/07 09:34:41;;;;;;;10.63;1.10;;;3.40;99.90;;;;;;5136386;27;20035;-81
2022/12/07 09:37:07;;;;;;;14.30;1.00;;;3.30;99.90;;;;;;5118256;27;20074;-81
2022/12/07 09:39:33;;;;;;;7.93;1.10;;;3.20;99.90;;;;;;5136186;27;20046;-80
2022/12/07 09:42:03;;;;;;;14.50;1.25;;;3.20;99.90;;;;;;5135175;27;20047;-80
2022/12/07 09:44:28;;;;;;;13.05;1.00;;;3.10;99.90;;;;;;5136112;27;20049;-80
2022/12/07 09:46:56;;;;;;;6.85;1.23;;;3.10;99.90;;;;;;5136006;27;20043;-80
2022/12/07 09:49:25;;;;;;;11.77;0.80;;;3.00;99.90;;;;;;5135991;27;20579;-81
2022/12/07 09:52:27;;;;;;;13.02;1.10;;;3.20;99.90;;;;;;5138949;27;20471;-79
2022/12/07 09:54:53;;;;;;;15.50;1.25;;;3.30;99.90;;;;;;5123372;27;20156;-81
2022/12/07 09:57:34;;;;;;;13.35;1.00;;;3.40;99.90;;;;;;5140030;27;20531;-80
2022/12/07 10:00:03;;;;;;;11.52;1.10;;;3.60;99.90;;;;;;5121072;27;20047;-81
2022/12/07 10:02:41;;;;;;;12.52;1.30;;;3.80;99.90;;;;;;5102254;27;20394;-80
2022/12/07 10:05:15;;;;;;;14.23;1.40;;;4.10;99.90;;;;;;5118540;27;20514;-80
2022/12/07 10:07:41;;;;;;;7.15;0.95;;;4.20;99.90;;;;;;5138296;27;20096;-82
2022/12/07 10:10:17;;;;;;;9.27;0.90;;;4.30;99.90;;;;;;5137206;27;20412;-80
2022/12/07 10:13:03;;;;;;;13.38;0.90;;;4.40;99.90;;;;;;5136506;27;20387;-80
2022/12/07 10:15:48;;;;;;;6.75;0.70;;;4.50;99.90;;;;;;5135944;27;20103;-81
2022/12/07 10:18:33;;;;;;;9.57;0.70;;;4.50;99.90;;;;;;5135798;27;20058;-81
2022/12/07 10:21:12;;;;;;;9.15;0.77;;;4.50;99.90;;;;;;5117696;27;20387;-81
2022/12/07 10:23:41;;;;;;;8.15;0.70;;;4.50;99.90;;;;;;5116883;27;20066;-80
2022/12/07 10:26:33;;;;;;;6.57;0.55;;;4.40;99.90;;;;;;5116670;27;20039;-81
2022/12/07 10:29:22;;;;;;;12.20;0.80;;;4.40;99.90;;;;;;5128008;27;20069;-81
2022/12/07 10:32:03;;;;;;;7.28;0.65;;;4.40;99.90;;;;;;5108072;27;20043;-82
2022/12/07 10:34:32;;;;;;;10.68;0.95;;;4.40;99.90;;;;;;5134759;27;20031;-81
2022/12/07 10:37:15;;;;;;;6.63;0.82;;;4.30;99.90;;;;;;5116469;27;20043;-80
2022/12/07 10:39:50;;;;;;;11.38;0.73;;;4.20;99.90;;;;;;5135493;27;20050;-81
2022/12/07 10:42:16;;;;;;;10.57;1.35;;;4.20;99.90;;;;;;5134969;27;20047;-81
2022/12/07 10:44:43;;;;;;;8.73;0.75;;;4.30;99.90;;;;;;5116199;27;20126;-80
2022/12/07 10:47:33;;;;;;;15.15;1.45;;;4.30;99.90;;;;;;5116158;27;20047;-82
2022/12/07 10:50:14;;;;;;;7.90;1.08;;;4.40;99.90;;;;;;5134837;27;20051;-81
2022/12/07 10:52:53;;;;;;;10.77;0.90;;;4.50;99.90;;;;;;5115456;27;20076;-81
2022/12/07 10:55:22;;;;;;;8.98;0.90;;;4.60;99.90;;;;;;5117896;27;20070;-82
2022/12/07 10:58:19;;;;;;;8.23;0.63;;;4.70;99.90;;;;;;5133925;27;20043;-81
2022/12/07 11:01:00;;;;;;;15.88;1.10;;;4.80;99.90;;;;;;5116878;27;20364;-82
2022/12/07 11:03:55;;;;;;;7.28;0.57;;;4.90;99.90;;;;;;5100292;27;20043;-83
2022/12/07 11:06:34;;;;;;;12.48;0.88;;;5.00;99.90;;;;;;5134382;27;20178;-82
2022/12/07 11:09:26;;;;;;;10.80;1.17;;;5.10;99.90;;;;;;5134399;27;20078;-82
2022/12/07 11:12:09;;;;;;;6.25;0.80;;;5.10;99.90;;;;;;5116489;27;20471;-81
2022/12/07 11:14:48;;;;;;;6.60;0.63;;;5.20;99.90;;;;;;5134885;27;20078;-83
2022/12/07 11:17:37;;;;;;;6.63;0.60;;;5.20;99.90;;;;;;5135341;27;20103;-85
2022/12/07 11:20:44;;;;;;;4.75;0.50;;;5.20;99.90;;;;;;5094337;27;20560;-83
2022/12/07 11:23:41;;;;;;;10.77;1.17;;;5.20;99.90;;;;;;5134079;27;20051;-81
2022/12/07 11:26:43;;;;;;;17.67;0.82;;;5.30;99.90;;;;;;5130952;27;20436;-81
2022/12/07 11:29:42;;;;;;;12.02;1.15;;;5.30;99.90;;;;;;5134169;27;20043;-82
2022/12/07 11:32:21;;;;;;;6.55;0.63;;;5.30;99.90;;;;;;5134561;27;20089;-81
2022/12/07 11:35:06;;;;;;;11.18;0.43;;;5.30;99.90;;;;;;5115571;27;20039;-83
2022/12/07 11:37:35;;;;;;;8.65;0.90;;;5.30;99.90;;;;;;5134366;27;20039;-82
2022/12/07 11:40:03;;;;;;;6.03;0.60;;;5.30;99.90;;;;;;5133798;27;20089;-80
2022/12/07 11:42:37;;;;;;;5.57;0.50;;;5.40;99.90;;;;;;5133947;27;20122;-82
2022/12/07 11:45:26;;;;;;;5.93;0.52;;;5.40;99.90;;;;;;5133672;27;20047;-81
2022/12/07 11:48:03;;;;;;;8.13;0.43;;;5.40;99.90;;;;;;5134439;27;20382;-82
2022/12/07 11:50:51;;;;;;;8.70;0.60;;;5.40;99.90;;;;;;5135151;27;20050;-81
2022/12/07 11:53:49;;;;;;;12.20;0.55;;;5.30;99.90;;;;;;5134413;27;20099;-82
2022/12/07 11:56:19;;;;;;;10.27;1.05;;;5.30;99.90;;;;;;5130426;27;20047;-82
2022/12/07 11:58:51;;;;;;;9.38;0.50;;;5.30;99.90;;;;;;5116116;27;20165;-81
2022/12/07 12:02:03;;;;;;;10.63;0.95;;;5.30;99.90;;;;;;5135445;27;20047;-80
2022/12/07 12:04:33;;;;;;;8.50;0.50;;;5.30;99.90;;;;;;5061160;27;20052;-80
2022/12/07 12:06:59;;;;;;;5.05;0.50;;;5.40;99.90;;;;;;5096418;28;20365;-83
2022/12/07 12:09:33;;;;;;;12.52;1.15;;;5.40;99.90;;;;;;5112936;28;20047;-82
2022/12/07 12:12:24;;;;;;;11.02;0.90;;;5.50;99.90;;;;;;5113535;28;20054;-81
2022/12/07 12:15:09;;;;;;;9.88;0.52;;;5.50;99.90;;;;;;5115494;28;20050;-81
2022/12/07 12:18:12;;;;;;;15.38;1.20;;;5.60;99.90;;;;;;5125601;28;20051;-81
2022/12/07 12:20:43;;;;;;;15.40;1.25;;;5.60;99.90;;;;;;5120631;28;20058;-82
2022/12/07 12:23:45;;;;;;;16.90;0.82;;;5.60;99.90;;;;;;5119581;28;20474;-82
2022/12/07 12:26:33;;;;;;;10.27;1.20;;;5.60;99.90;;;;;;5094185;28;20063;-82
2022/12/07 12:29:03;;;;;;;11.73;0.65;;;5.50;99.90;;;;;;5125307;28;20044;-81
2022/12/07 12:31:39;;;;;;;18.13;0.70;;;5.50;99.90;;;;;;5125450;28;20139;-82
2022/12/07 12:35:00;;;;;;;7.40;0.50;;;5.60;99.90;;;;;;5125440;28;20043;-81
2022/12/07 12:37:41;;;;;;;9.13;0.50;;;5.50;99.90;;;;;;5061469;28;20071;-82
2022/12/07 12:40:16;;;;;;;12.18;0.50;;;5.60;99.90;;;;;;5113591;28;20052;-82
2022/12/07 12:42:47;;;;;;;14.32;0.95;;;5.70;99.90;;;;;;5119211;28;20047;-81
2022/12/07 12:45:22;;;;;;;8.70;0.75;;;5.70;99.90;;;;;;5114770;28;20051;-82
2022/12/07 12:48:03;;;;;;;12.20;0.80;;;5.70;99.90;;;;;;5114094;28;20040;-81
2022/12/07 12:50:37;;;;;;;10.63;0.68;;;5.80;99.90;;;;;;5112753;28;20130;-82
2022/12/07 12:53:12;;;;;;;10.43;0.70;;;6.10;99.90;;;;;;5111476;28;20071;-82
2022/12/07 12:55:48;;;;;;;8.98;0.70;;;5.90;99.90;;;;;;5094936;28;20371;-82
2022/12/07 12:58:17;;;;;;;9.45;0.85;;;5.90;99.90;;;;;;5111360;28;20048;-83
2022/12/07 13:00:44;;;;;;;11.75;0.93;;;5.90;99.90;;;;;;5111749;28;20117;-81
2022/12/07 13:03:31;;;;;;;7.85;0.68;;;5.80;99.90;;;;;;5112191;28;20047;-83
2022/12/07 13:06:25;;;;;;;11.43;1.02;;;5.90;99.90;;;;;;5111785;28;20056;-80
2022/12/07 13:08:53;;;;;;;10.13;0.70;;;5.80;99.90;;;;;;5110811;28;20055;-83
2022/12/07 13:11:34;;;;;;;14.52;0.70;;;6.00;99.90;;;;;;5112012;28;20055;-81
2022/12/07 13:14:40;;;;;;;10.25;0.80;;;6.00;99.90;;;;;;5112753;28;20046;-81
2022/12/07 13:17:11;;;;;;;8.63;0.55;;;6.00;99.90;;;;;;5116237;27;20043;-80
2022/12/07 13:19:53;;;;;;;10.98;0.70;;;6.00;99.90;;;;;;5115315;28;20039;-82